Time;durP1;ratioP1;P1;durP2;ratioP2;P2;SDS_P1;SDS_P2;PMS_P1;PMS_P2;Temp;Humidity;BMP_temperature;BMP_pressure;BME280_temperature;BME280_humidity;BME280_pressure;Samples;Min_cycle;Max_cycle;Signal;HPM_P1;HPM_P2
2023/03/19 00:00:00;;;;;;;8.40;4.70;;;;;;;;;;521085;28;1238;-74
2023/03/19 00:00:16;;;;;;;8.10;4.65;;;;;;;;;;521440;28;1591;-74
2023/03/19 00:00:32;;;;;;;7.43;4.60;;;;;;;;;;521123;28;1002;-74
2023/03/19 00:00:47;;;;;;;6.80;4.28;;;;;;;;;;520192;28;1462;-74
2023/03/19 00:01:06;;;;;;;6.50;4.10;;;;;;;;;;517777;28;1282;-75
2023/03/19 00:01:21;;;;;;;6.93;4.20;;;;;;;;;;520421;28;1272;-74
2023/03/19 00:01:37;;;;;;;7.90;4.30;;;;;;;;;;520927;28;1004;-74
2023/03/19 00:01:52;;;;;;;7.32;4.57;;;;;;;;;;521297;28;1334;-74
2023/03/19 00:02:08;;;;;;;6.37;4.53;;;;;;;;;;520852;28;1406;-73
2023/03/19 00:02:23;;;;;;;6.90;4.20;;;;;;;;;;521444;28;1917;-74
2023/03/19 00:02:38;;;;;;;6.77;4.10;;;;;;;;;;521271;28;1315;-74
2023/03/19 00:02:54;;;;;;;6.57;4.30;;;;;;;;;;521265;27;1981;-74
2023/03/19 00:03:09;;;;;;;6.68;4.53;;;;;;;;;;519938;28;1967;-75
2023/03/19 00:03:24;;;;;;;8.73;4.80;;;;;;;;;;522927;28;1025;-74
2023/03/19 00:03:40;;;;;;;8.87;4.77;;;;;;;;;;523591;28;1008;-74
2023/03/19 00:03:55;;;;;;;7.37;4.40;;;;;;;;;;524707;28;1223;-74
2023/03/19 00:04:11;;;;;;;7.15;4.45;;;;;;;;;;524422;28;1390;-74
2023/03/19 00:04:27;;;;;;;6.47;4.73;;;;;;;;;;520519;28;1330;-74
2023/03/19 00:04:42;;;;;;;6.53;4.65;;;;;;;;;;521045;28;1452;-74
2023/03/19 00:04:57;;;;;;;6.67;4.37;;;;;;;;;;520655;28;1135;-74
2023/03/19 00:05:13;;;;;;;6.23;4.40;;;;;;;;;;523527;28;1009;-74
2023/03/19 00:05:28;;;;;;;5.90;4.40;;;;;;;;;;521292;28;1381;-74
2023/03/19 00:05:52;;;;;;;6.03;4.20;;;;;;;;;;520420;28;1043;-74
2023/03/19 00:06:08;;;;;;;6.03;4.03;;;;;;;;;;522708;28;1528;-74
2023/03/19 00:06:24;;;;;;;6.17;4.10;;;;;;;;;;524940;27;1170;-74
2023/03/19 00:06:39;;;;;;;6.03;4.22;;;;;;;;;;526951;27;973;-73
2023/03/19 00:06:55;;;;;;;6.63;4.30;;;;;;;;;;524092;28;1206;-74
2023/03/19 00:07:10;;;;;;;8.15;4.40;;;;;;;;;;524030;28;1064;-74
2023/03/19 00:07:26;;;;;;;7.50;4.30;;;;;;;;;;521220;28;1262;-74
2023/03/19 00:07:41;;;;;;;7.20;4.25;;;;;;;;;;520837;28;1308;-74
2023/03/19 00:07:56;;;;;;;7.47;4.20;;;;;;;;;;519696;28;1466;-75
2023/03/19 00:08:12;;;;;;;6.43;4.00;;;;;;;;;;520789;28;1405;-74
2023/03/19 00:08:27;;;;;;;6.80;4.03;;;;;;;;;;521868;28;1234;-74
2023/03/19 00:08:42;;;;;;;8.07;4.17;;;;;;;;;;521258;28;1325;-73
2023/03/19 00:08:58;;;;;;;7.18;4.00;;;;;;;;;;518430;28;1182;-74
2023/03/19 00:09:13;;;;;;;6.87;3.90;;;;;;;;;;519498;28;1090;-73
2023/03/19 00:09:28;;;;;;;7.93;4.03;;;;;;;;;;517880;28;1559;-74
2023/03/19 00:09:44;;;;;;;8.43;4.43;;;;;;;;;;517505;28;1439;-73
2023/03/19 00:09:59;;;;;;;7.63;4.37;;;;;;;;;;518053;28;990;-74
2023/03/19 00:10:14;;;;;;;6.67;4.10;;;;;;;;;;516002;28;1094;-74
2023/03/19 00:10:30;;;;;;;7.20;4.05;;;;;;;;;;517875;28;1067;-73
2023/03/19 00:10:45;;;;;;;6.90;4.07;;;;;;;;;;518254;28;1200;-74
2023/03/19 00:11:08;;;;;;;7.33;4.20;;;;;;;;;;519336;28;1038;-74
2023/03/19 00:11:24;;;;;;;9.63;4.40;;;;;;;;;;521151;28;1437;-73
2023/03/19 00:11:39;;;;;;;10.02;4.43;;;;;;;;;;520798;28;1556;-74
2023/03/19 00:11:55;;;;;;;7.85;4.30;;;;;;;;;;518782;28;1250;-74
2023/03/19 00:12:11;;;;;;;7.80;4.30;;;;;;;;;;520495;28;938;-73
2023/03/19 00:12:26;;;;;;;7.13;4.23;;;;;;;;;;519591;28;1136;-74
2023/03/19 00:12:41;;;;;;;7.83;4.40;;;;;;;;;;518911;28;1393;-74
2023/03/19 00:12:56;;;;;;;8.47;4.10;;;;;;;;;;520098;28;1244;-74
2023/03/19 00:13:12;;;;;;;8.33;3.83;;;;;;;;;;520270;28;1014;-74
2023/03/19 00:13:27;;;;;;;8.30;4.20;;;;;;;;;;518279;28;1318;-74
2023/03/19 00:13:42;;;;;;;7.43;4.00;;;;;;;;;;519748;28;1088;-74
2023/03/19 00:13:57;;;;;;;7.07;3.80;;;;;;;;;;521508;28;1072;-74
2023/03/19 00:14:14;;;;;;;7.50;4.00;;;;;;;;;;519365;28;1323;-74
2023/03/19 00:14:29;;;;;;;7.60;3.95;;;;;;;;;;521116;28;1451;-74
2023/03/19 00:14:45;;;;;;;8.07;3.97;;;;;;;;;;523468;28;1079;-74
2023/03/19 00:15:01;;;;;;;8.77;4.13;;;;;;;;;;522762;28;1337;-73
2023/03/19 00:15:16;;;;;;;6.90;3.70;;;;;;;;;;519681;28;1357;-74
2023/03/19 00:15:31;;;;;;;5.55;3.67;;;;;;;;;;520404;28;998;-75
2023/03/19 00:15:47;;;;;;;6.43;4.00;;;;;;;;;;520987;28;1136;-74
2023/03/19 00:16:02;;;;;;;6.80;4.17;;;;;;;;;;520580;28;1195;-75
2023/03/19 00:16:18;;;;;;;7.97;4.30;;;;;;;;;;520465;28;1213;-74
2023/03/19 00:16:33;;;;;;;8.33;4.00;;;;;;;;;;518342;28;1077;-74
2023/03/19 00:16:49;;;;;;;8.57;4.10;;;;;;;;;;520015;28;1014;-73
2023/03/19 00:17:05;;;;;;;9.05;4.30;;;;;;;;;;520777;28;1014;-74
2023/03/19 00:17:20;;;;;;;8.53;3.70;;;;;;;;;;522050;28;2013;-74
2023/03/19 00:17:35;;;;;;;7.25;3.65;;;;;;;;;;521628;28;1232;-74
2023/03/19 00:17:51;;;;;;;5.87;3.90;;;;;;;;;;521123;28;1170;-74
2023/03/19 00:18:07;;;;;;;6.60;3.95;;;;;;;;;;522901;28;1323;-74
2023/03/19 00:18:22;;;;;;;6.70;3.80;;;;;;;;;;522461;28;1248;-74
2023/03/19 00:18:37;;;;;;;5.70;3.60;;;;;;;;;;524646;28;1060;-74
2023/03/19 00:18:53;;;;;;;7.43;3.87;;;;;;;;;;524620;28;1365;-74
2023/03/19 00:19:09;;;;;;;8.50;3.90;;;;;;;;;;524120;28;1022;-73
2023/03/19 00:19:24;;;;;;;7.32;4.05;;;;;;;;;;522196;28;1078;-74
2023/03/19 00:19:39;;;;;;;6.87;4.40;;;;;;;;;;523967;28;1286;-74
2023/03/19 00:19:55;;;;;;;6.27;4.13;;;;;;;;;;521211;28;1245;-74
2023/03/19 00:20:13;;;;;;;5.35;3.63;;;;;;;;;;520830;28;1294;-74
2023/03/19 00:20:29;;;;;;;6.13;3.80;;;;;;;;;;523562;28;1100;-74
2023/03/19 00:20:45;;;;;;;7.35;4.00;;;;;;;;;;522883;28;1172;-74
2023/03/19 00:21:00;;;;;;;8.23;4.00;;;;;;;;;;520929;28;1412;-73
2023/03/19 00:21:16;;;;;;;8.50;4.05;;;;;;;;;;522544;28;1042;-73
2023/03/19 00:21:31;;;;;;;7.83;4.00;;;;;;;;;;522675;28;1265;-73
2023/03/19 00:21:47;;;;;;;7.40;4.00;;;;;;;;;;524122;28;1109;-74
2023/03/19 00:22:02;;;;;;;6.80;4.20;;;;;;;;;;523137;28;1297;-74
2023/03/19 00:22:17;;;;;;;5.67;4.10;;;;;;;;;;520177;28;1515;-74
2023/03/19 00:22:33;;;;;;;6.60;3.90;;;;;;;;;;519983;28;1260;-73
2023/03/19 00:22:48;;;;;;;7.88;4.00;;;;;;;;;;519649;28;1055;-75
2023/03/19 00:23:03;;;;;;;7.50;4.17;;;;;;;;;;524317;28;1521;-73
2023/03/19 00:23:18;;;;;;;6.50;4.00;;;;;;;;;;523145;28;1183;-74
2023/03/19 00:23:35;;;;;;;6.80;3.83;;;;;;;;;;521575;28;1166;-74
2023/03/19 00:23:50;;;;;;;7.15;3.88;;;;;;;;;;521399;28;1195;-73
2023/03/19 00:24:06;;;;;;;6.40;3.90;;;;;;;;;;520400;28;1187;-74
2023/03/19 00:24:21;;;;;;;7.03;4.13;;;;;;;;;;519744;28;1187;-73
2023/03/19 00:24:37;;;;;;;8.27;4.23;;;;;;;;;;519076;28;1611;-74
2023/03/19 00:24:52;;;;;;;8.60;4.30;;;;;;;;;;518841;28;1108;-74
2023/03/19 00:25:08;;;;;;;7.10;4.00;;;;;;;;;;520044;28;1116;-74
2023/03/19 00:25:24;;;;;;;6.00;3.83;;;;;;;;;;520582;28;1179;-74
2023/03/19 00:25:39;;;;;;;7.07;4.10;;;;;;;;;;521750;28;1014;-73
2023/03/19 00:25:54;;;;;;;7.20;4.30;;;;;;;;;;520726;28;1319;-74
2023/03/19 00:26:10;;;;;;;7.20;4.43;;;;;;;;;;522831;28;953;-74
2023/03/19 00:26:27;;;;;;;7.53;4.40;;;;;;;;;;521529;28;1278;-73
2023/03/19 00:26:43;;;;;;;7.47;4.25;;;;;;;;;;520930;28;1268;-73
2023/03/19 00:26:58;;;;;;;8.57;4.40;;;;;;;;;;519231;28;1123;-74
2023/03/19 00:27:13;;;;;;;9.00;4.47;;;;;;;;;;521426;28;1289;-73
2023/03/19 00:27:28;;;;;;;9.20;4.50;;;;;;;;;;520294;28;1074;-74
2023/03/19 00:27:44;;;;;;;7.88;4.30;;;;;;;;;;521279;28;1341;-74
2023/03/19 00:27:59;;;;;;;7.10;4.10;;;;;;;;;;521379;28;1232;-74
2023/03/19 00:28:14;;;;;;;7.47;4.27;;;;;;;;;;522677;28;1018;-74
2023/03/19 00:28:30;;;;;;;7.53;4.40;;;;;;;;;;521920;28;1216;-74
2023/03/19 00:28:45;;;;;;;8.03;4.80;;;;;;;;;;524383;28;1108;-74
2023/03/19 00:29:00;;;;;;;7.30;4.70;;;;;;;;;;526385;28;1091;-74
2023/03/19 00:29:16;;;;;;;7.13;4.38;;;;;;;;;;526779;28;1151;-73
2023/03/19 00:29:31;;;;;;;7.40;4.60;;;;;;;;;;524245;28;1121;-74
2023/03/19 00:29:47;;;;;;;8.00;4.60;;;;;;;;;;524172;28;1337;-74
2023/03/19 00:30:04;;;;;;;8.30;4.47;;;;;;;;;;523947;28;1297;-74
2023/03/19 00:30:20;;;;;;;8.90;4.68;;;;;;;;;;523039;28;1313;-75
2023/03/19 00:30:35;;;;;;;8.30;4.63;;;;;;;;;;522525;28;1165;-74
2023/03/19 00:30:51;;;;;;;7.20;4.70;;;;;;;;;;523924;28;942;-73
2023/03/19 00:31:11;;;;;;;7.37;4.97;;;;;;;;;;524141;28;1289;-74
2023/03/19 00:31:27;;;;;;;7.90;4.95;;;;;;;;;;524314;28;1033;-75
2023/03/19 00:31:43;;;;;;;8.15;4.90;;;;;;;;;;522721;28;1375;-74
2023/03/19 00:31:58;;;;;;;7.53;4.70;;;;;;;;;;523171;28;1263;-74
2023/03/19 00:32:14;;;;;;;6.35;4.20;;;;;;;;;;521606;28;1262;-74
2023/03/19 00:32:29;;;;;;;5.83;3.90;;;;;;;;;;521350;28;1089;-74
2023/03/19 00:32:45;;;;;;;6.60;3.95;;;;;;;;;;522154;28;1288;-74
2023/03/19 00:33:01;;;;;;;6.53;3.93;;;;;;;;;;518926;28;1191;-73
2023/03/19 00:33:16;;;;;;;5.70;4.00;;;;;;;;;;519017;28;958;-74
2023/03/19 00:33:31;;;;;;;8.67;4.60;;;;;;;;;;517128;28;1199;-74
2023/03/19 00:33:46;;;;;;;10.15;4.78;;;;;;;;;;519503;28;1057;-74
2023/03/19 00:34:02;;;;;;;8.23;4.57;;;;;;;;;;519431;28;1159;-74
2023/03/19 00:34:18;;;;;;;8.50;5.07;;;;;;;;;;520590;28;1307;-74
2023/03/19 00:34:33;;;;;;;10.88;5.38;;;;;;;;;;522078;28;993;-75
2023/03/19 00:34:48;;;;;;;10.97;5.10;;;;;;;;;;521937;28;1221;-73
2023/03/19 00:35:05;;;;;;;8.77;4.93;;;;;;;;;;523231;28;1476;-74
2023/03/19 00:35:20;;;;;;;7.80;4.75;;;;;;;;;;520972;28;1604;-73
2023/03/19 00:35:38;;;;;;;7.60;4.88;;;;;;;;;;518765;28;1494;-73
2023/03/19 00:35:53;;;;;;;7.93;4.95;;;;;;;;;;518125;28;1603;-74
2023/03/19 00:36:10;;;;;;;7.43;4.77;;;;;;;;;;518448;28;1401;-75
2023/03/19 00:36:27;;;;;;;6.30;4.47;;;;;;;;;;518716;28;1107;-74
2023/03/19 00:36:42;;;;;;;5.78;4.20;;;;;;;;;;517304;28;1421;-73
2023/03/19 00:36:57;;;;;;;5.10;4.05;;;;;;;;;;519478;28;1049;-74
2023/03/19 00:37:15;;;;;;;5.47;4.43;;;;;;;;;;517318;28;1977;-74
2023/03/19 00:37:31;;;;;;;7.28;4.82;;;;;;;;;;516946;28;1312;-74
2023/03/19 00:37:46;;;;;;;7.78;4.90;;;;;;;;;;520338;28;1091;-74
2023/03/19 00:38:01;;;;;;;8.23;5.10;;;;;;;;;;519758;28;1141;-73
2023/03/19 00:38:17;;;;;;;9.17;5.03;;;;;;;;;;519028;28;1200;-74
2023/03/19 00:38:34;;;;;;;8.93;5.00;;;;;;;;;;519924;28;1186;-74
2023/03/19 00:38:50;;;;;;;7.72;4.72;;;;;;;;;;519991;28;1216;-73
2023/03/19 00:39:05;;;;;;;7.70;4.67;;;;;;;;;;519104;28;1304;-74
2023/03/19 00:39:20;;;;;;;7.93;4.80;;;;;;;;;;517865;28;1251;-74
2023/03/19 00:39:35;;;;;;;8.80;4.80;;;;;;;;;;519579;28;1346;-73
2023/03/19 00:39:51;;;;;;;8.67;4.70;;;;;;;;;;519965;28;936;-74
2023/03/19 00:40:07;;;;;;;9.07;5.03;;;;;;;;;;520384;28;1113;-74
2023/03/19 00:40:22;;;;;;;9.80;4.95;;;;;;;;;;520168;28;1318;-73
2023/03/19 00:40:38;;;;;;;8.80;4.70;;;;;;;;;;521861;28;1121;-74
2023/03/19 00:40:54;;;;;;;7.43;4.80;;;;;;;;;;518696;28;1206;-74
2023/03/19 00:41:09;;;;;;;7.10;4.53;;;;;;;;;;522582;28;1210;-73
2023/03/19 00:41:25;;;;;;;8.50;4.40;;;;;;;;;;522151;28;1294;-74
2023/03/19 00:41:40;;;;;;;8.43;4.43;;;;;;;;;;523816;28;1244;-73
2023/03/19 00:41:56;;;;;;;7.70;4.60;;;;;;;;;;521844;28;1202;-74
2023/03/19 00:42:11;;;;;;;7.18;4.60;;;;;;;;;;519410;28;1295;-74
2023/03/19 00:42:27;;;;;;;6.60;4.43;;;;;;;;;;520517;28;1257;-74
2023/03/19 00:42:44;;;;;;;6.82;4.32;;;;;;;;;;519777;28;1248;-73
2023/03/19 00:43:00;;;;;;;6.30;4.30;;;;;;;;;;517031;28;1258;-74
2023/03/19 00:43:15;;;;;;;6.80;4.43;;;;;;;;;;519785;28;1230;-73
2023/03/19 00:43:31;;;;;;;6.60;4.40;;;;;;;;;;521407;28;1382;-74
2023/03/19 00:43:46;;;;;;;6.43;4.38;;;;;;;;;;522451;28;1292;-74
2023/03/19 00:44:02;;;;;;;7.83;4.57;;;;;;;;;;521268;28;1217;-73
2023/03/19 00:44:18;;;;;;;7.95;4.90;;;;;;;;;;521926;28;1307;-73
2023/03/19 00:44:33;;;;;;;8.05;5.25;;;;;;;;;;519747;28;1425;-74
2023/03/19 00:44:48;;;;;;;8.17;5.13;;;;;;;;;;520798;28;1030;-74
2023/03/19 00:45:04;;;;;;;7.30;4.87;;;;;;;;;;520512;28;1142;-74
2023/03/19 00:45:20;;;;;;;7.43;4.80;;;;;;;;;;519269;28;1320;-73
2023/03/19 00:45:35;;;;;;;8.07;5.00;;;;;;;;;;519881;28;1098;-73
2023/03/19 00:45:51;;;;;;;8.13;5.20;;;;;;;;;;522035;28;1023;-73
2023/03/19 00:46:06;;;;;;;8.32;5.10;;;;;;;;;;522431;28;1198;-74
2023/03/19 00:46:23;;;;;;;9.20;5.07;;;;;;;;;;522344;28;1241;-74
2023/03/19 00:46:38;;;;;;;9.13;5.00;;;;;;;;;;523830;28;1132;-74
2023/03/19 00:46:53;;;;;;;8.30;4.90;;;;;;;;;;522693;28;1473;-74
2023/03/19 00:47:08;;;;;;;7.83;4.63;;;;;;;;;;523806;28;1004;-74
2023/03/19 00:47:24;;;;;;;8.00;4.90;;;;;;;;;;522552;28;1195;-74
2023/03/19 00:47:41;;;;;;;8.32;5.28;;;;;;;;;;522413;28;1332;-75
2023/03/19 00:47:56;;;;;;;9.38;5.40;;;;;;;;;;522292;28;1113;-74
2023/03/19 00:48:11;;;;;;;10.00;5.47;;;;;;;;;;525372;28;1020;-74
2023/03/19 00:48:27;;;;;;;9.93;5.70;;;;;;;;;;523436;28;1439;-74
2023/03/19 00:48:42;;;;;;;9.68;5.65;;;;;;;;;;521008;28;1234;-74
2023/03/19 00:48:57;;;;;;;8.60;5.30;;;;;;;;;;519890;28;1223;-74
2023/03/19 00:49:13;;;;;;;9.10;5.47;;;;;;;;;;520610;28;1309;-74
2023/03/19 00:49:28;;;;;;;8.80;5.33;;;;;;;;;;518479;28;1196;-73
2023/03/19 00:49:43;;;;;;;7.90;5.10;;;;;;;;;;521112;28;1089;-73
2023/03/19 00:49:58;;;;;;;7.50;5.30;;;;;;;;;;521482;28;1253;-74
2023/03/19 00:50:14;;;;;;;7.55;5.32;;;;;;;;;;520960;28;1013;-73
2023/03/19 00:50:29;;;;;;;8.27;5.40;;;;;;;;;;523073;28;1187;-73
2023/03/19 00:50:45;;;;;;;8.77;5.22;;;;;;;;;;523035;28;1288;-74
2023/03/19 00:51:04;;;;;;;8.30;4.97;;;;;;;;;;522545;28;1216;-74
2023/03/19 00:51:22;;;;;;;8.73;5.18;;;;;;;;;;524967;28;1246;-74
2023/03/19 00:51:37;;;;;;;9.40;5.43;;;;;;;;;;523771;28;1218;-74
2023/03/19 00:51:52;;;;;;;8.70;5.47;;;;;;;;;;521700;28;1203;-74
2023/03/19 00:52:07;;;;;;;7.97;5.10;;;;;;;;;;521396;28;954;-73
2023/03/19 00:52:23;;;;;;;8.43;4.90;;;;;;;;;;521215;28;1675;-74
2023/03/19 00:52:38;;;;;;;9.57;4.87;;;;;;;;;;522470;28;974;-74
2023/03/19 00:52:53;;;;;;;9.07;4.90;;;;;;;;;;522741;28;1065;-75
2023/03/19 00:53:09;;;;;;;8.80;5.15;;;;;;;;;;523091;28;1150;-74
2023/03/19 00:53:25;;;;;;;8.77;5.13;;;;;;;;;;521855;28;1199;-73
2023/03/19 00:53:42;;;;;;;8.73;5.22;;;;;;;;;;523575;28;1085;-73
2023/03/19 00:53:58;;;;;;;8.75;5.18;;;;;;;;;;525759;28;1147;-74
2023/03/19 00:54:13;;;;;;;8.47;5.20;;;;;;;;;;524078;28;1287;-74
2023/03/19 00:54:28;;;;;;;9.30;5.30;;;;;;;;;;523765;28;1123;-73
2023/03/19 00:54:43;;;;;;;8.90;5.15;;;;;;;;;;524197;28;1243;-74
2023/03/19 00:54:59;;;;;;;6.83;4.80;;;;;;;;;;523211;28;950;-74
2023/03/19 00:55:14;;;;;;;6.93;4.80;;;;;;;;;;523666;28;1160;-73
2023/03/19 00:55:30;;;;;;;7.15;4.90;;;;;;;;;;523156;28;1198;-73
2023/03/19 00:55:45;;;;;;;7.90;4.80;;;;;;;;;;521468;28;1235;-75
2023/03/19 00:56:00;;;;;;;8.98;4.70;;;;;;;;;;520256;28;1226;-74
2023/03/19 00:56:17;;;;;;;8.77;4.70;;;;;;;;;;523828;28;1198;-74
2023/03/19 00:56:32;;;;;;;7.53;4.55;;;;;;;;;;522674;28;1077;-73
2023/03/19 00:56:47;;;;;;;6.03;4.40;;;;;;;;;;520348;28;1235;-74
2023/03/19 00:57:02;;;;;;;6.83;4.40;;;;;;;;;;522238;28;978;-74
2023/03/19 00:57:18;;;;;;;8.00;4.40;;;;;;;;;;522544;28;1975;-74
2023/03/19 00:57:33;;;;;;;8.07;4.37;;;;;;;;;;521106;28;1354;-74
2023/03/19 00:57:48;;;;;;;8.00;4.53;;;;;;;;;;523317;28;1178;-74
2023/03/19 00:58:05;;;;;;;9.37;4.97;;;;;;;;;;522806;28;1133;-74
2023/03/19 00:58:20;;;;;;;10.07;5.03;;;;;;;;;;525286;28;989;-74
2023/03/19 00:58:37;;;;;;;8.60;4.70;;;;;;;;;;523169;28;1250;-74
2023/03/19 00:58:55;;;;;;;7.18;4.43;;;;;;;;;;526293;28;1128;-74
2023/03/19 00:59:10;;;;;;;6.97;4.20;;;;;;;;;;523876;28;1282;-74
2023/03/19 00:59:26;;;;;;;7.23;4.23;;;;;;;;;;526065;27;1028;-74
2023/03/19 00:59:41;;;;;;;7.57;4.40;;;;;;;;;;525891;27;1028;-74
2023/03/19 00:59:56;;;;;;;6.77;4.27;;;;;;;;;;524422;28;946;-74
2023/03/19 01:00:12;;;;;;;8.17;4.60;;;;;;;;;;522700;28;1178;-74
2023/03/19 01:00:28;;;;;;;8.10;4.50;;;;;;;;;;522972;28;988;-74
2023/03/19 01:00:44;;;;;;;7.23;4.20;;;;;;;;;;522902;28;1431;-74
2023/03/19 01:00:59;;;;;;;8.18;4.18;;;;;;;;;;522133;28;1497;-73
2023/03/19 01:01:16;;;;;;;7.47;4.20;;;;;;;;;;524505;28;1110;-74
2023/03/19 01:01:32;;;;;;;8.18;4.45;;;;;;;;;;523973;28;1312;-74
2023/03/19 01:01:47;;;;;;;9.18;4.53;;;;;;;;;;522555;28;1156;-74
2023/03/19 01:02:03;;;;;;;8.77;4.50;;;;;;;;;;521000;28;1198;-73
2023/03/19 01:02:18;;;;;;;7.63;4.40;;;;;;;;;;522854;28;1206;-74
2023/03/19 01:02:33;;;;;;;6.93;4.40;;;;;;;;;;522441;28;1080;-74
2023/03/19 01:02:49;;;;;;;7.33;4.33;;;;;;;;;;521079;28;1837;-74
2023/03/19 01:03:05;;;;;;;8.90;4.30;;;;;;;;;;522976;28;1372;-73
2023/03/19 01:03:20;;;;;;;9.70;4.35;;;;;;;;;;522738;28;1160;-74
2023/03/19 01:03:36;;;;;;;8.50;4.33;;;;;;;;;;520651;28;1309;-74
2023/03/19 01:03:51;;;;;;;7.05;4.30;;;;;;;;;;520809;28;1038;-74
2023/03/19 01:04:06;;;;;;;5.67;4.00;;;;;;;;;;522737;28;1013;-74
2023/03/19 01:04:22;;;;;;;5.77;3.90;;;;;;;;;;521409;28;1174;-74
2023/03/19 01:04:37;;;;;;;7.10;4.13;;;;;;;;;;523310;28;1473;-74
2023/03/19 01:04:52;;;;;;;6.77;4.23;;;;;;;;;;522344;28;1177;-73
2023/03/19 01:05:08;;;;;;;6.97;4.10;;;;;;;;;;521847;28;1120;-74
2023/03/19 01:05:23;;;;;;;8.23;4.10;;;;;;;;;;521781;28;976;-74
2023/03/19 01:05:39;;;;;;;7.47;4.00;;;;;;;;;;521216;28;1259;-73
2023/03/19 01:05:54;;;;;;;6.82;4.00;;;;;;;;;;520306;28;1143;-74
2023/03/19 01:06:10;;;;;;;6.60;3.87;;;;;;;;;;522450;28;1052;-74
2023/03/19 01:06:26;;;;;;;7.03;3.95;;;;;;;;;;522415;28;1177;-74
2023/03/19 01:06:41;;;;;;;7.40;4.17;;;;;;;;;;520634;28;1280;-74
2023/03/19 01:06:57;;;;;;;6.63;4.07;;;;;;;;;;523733;28;1163;-74
2023/03/19 01:07:12;;;;;;;6.22;3.90;;;;;;;;;;523755;28;1344;-74
2023/03/19 01:07:27;;;;;;;6.70;3.80;;;;;;;;;;523791;28;1190;-75
2023/03/19 01:07:43;;;;;;;7.55;4.05;;;;;;;;;;526067;28;941;-74
2023/03/19 01:07:58;;;;;;;8.67;4.30;;;;;;;;;;524757;28;1312;-74
2023/03/19 01:08:15;;;;;;;8.77;4.53;;;;;;;;;;524918;28;1151;-73
2023/03/19 01:08:31;;;;;;;7.57;4.32;;;;;;;;;;523223;28;1120;-74
2023/03/19 01:08:46;;;;;;;6.68;4.03;;;;;;;;;;523866;28;997;-74
2023/03/19 01:09:01;;;;;;;6.93;4.30;;;;;;;;;;523585;28;1221;-74
2023/03/19 01:09:16;;;;;;;7.80;4.20;;;;;;;;;;522417;28;1226;-74
2023/03/19 01:09:32;;;;;;;7.43;3.90;;;;;;;;;;520562;28;1189;-73
2023/03/19 01:09:47;;;;;;;6.40;4.03;;;;;;;;;;519849;28;1418;-74
2023/03/19 01:10:03;;;;;;;7.32;4.20;;;;;;;;;;520249;28;1349;-74
2023/03/19 01:10:21;;;;;;;8.37;4.10;;;;;;;;;;519144;28;1318;-73
2023/03/19 01:10:36;;;;;;;6.72;3.80;;;;;;;;;;518735;28;1185;-73
2023/03/19 01:10:52;;;;;;;5.63;4.00;;;;;;;;;;519607;28;1208;-72
2023/03/19 01:11:11;;;;;;;6.90;4.17;;;;;;;;;;518379;28;1365;-74
2023/03/19 01:11:26;;;;;;;7.30;4.32;;;;;;;;;;522452;28;1509;-74
2023/03/19 01:11:41;;;;;;;6.57;4.10;;;;;;;;;;522249;28;1389;-74
2023/03/19 01:11:57;;;;;;;6.32;3.90;;;;;;;;;;523200;28;1069;-74
2023/03/19 01:12:13;;;;;;;6.55;4.05;;;;;;;;;;523778;27;1314;-74
2023/03/19 01:12:28;;;;;;;7.23;3.93;;;;;;;;;;524793;28;1280;-74
2023/03/19 01:12:43;;;;;;;8.17;4.00;;;;;;;;;;522713;28;1189;-74
2023/03/19 01:12:58;;;;;;;7.72;4.10;;;;;;;;;;522488;28;1141;-74
2023/03/19 01:13:14;;;;;;;7.50;4.30;;;;;;;;;;522165;28;1202;-74
2023/03/19 01:13:29;;;;;;;6.60;3.97;;;;;;;;;;524409;28;1269;-74
2023/03/19 01:13:45;;;;;;;7.13;3.87;;;;;;;;;;524492;28;1207;-74
2023/03/19 01:14:01;;;;;;;7.72;4.00;;;;;;;;;;523496;27;1018;-74
2023/03/19 01:14:16;;;;;;;7.10;3.80;;;;;;;;;;523476;27;1813;-74
2023/03/19 01:14:32;;;;;;;6.75;3.88;;;;;;;;;;526438;27;1098;-74
2023/03/19 01:14:47;;;;;;;5.85;3.78;;;;;;;;;;525709;27;1405;-74
2023/03/19 01:15:05;;;;;;;6.47;3.73;;;;;;;;;;527490;27;1166;-74
2023/03/19 01:15:21;;;;;;;7.15;4.10;;;;;;;;;;524175;27;1834;-74
2023/03/19 01:15:41;;;;;;;6.70;4.13;;;;;;;;;;523885;28;1212;-74
2023/03/19 01:15:56;;;;;;;6.15;4.00;;;;;;;;;;520813;28;1377;-74
2023/03/19 01:16:11;;;;;;;6.38;4.20;;;;;;;;;;522619;28;1275;-74
2023/03/19 01:16:27;;;;;;;5.50;3.83;;;;;;;;;;519826;28;1828;-75
2023/03/19 01:16:42;;;;;;;5.60;3.60;;;;;;;;;;522847;28;1074;-74
2023/03/19 01:16:58;;;;;;;5.90;3.93;;;;;;;;;;520652;28;1178;-74
2023/03/19 01:17:14;;;;;;;5.70;4.00;;;;;;;;;;521034;28;1913;-74
2023/03/19 01:17:29;;;;;;;5.47;3.60;;;;;;;;;;519993;28;1587;-74
2023/03/19 01:17:45;;;;;;;5.22;3.50;;;;;;;;;;520188;28;1082;-75
2023/03/19 01:18:00;;;;;;;5.78;3.53;;;;;;;;;;520815;28;1225;-74
2023/03/19 01:18:16;;;;;;;5.77;3.50;;;;;;;;;;520549;28;1250;-74
2023/03/19 01:18:31;;;;;;;5.88;3.67;;;;;;;;;;521379;28;1283;-74
2023/03/19 01:18:46;;;;;;;7.13;3.93;;;;;;;;;;522166;28;1165;-73
2023/03/19 01:19:02;;;;;;;8.57;4.10;;;;;;;;;;523255;28;1198;-74
2023/03/19 01:19:18;;;;;;;8.38;4.22;;;;;;;;;;524263;28;953;-75
2023/03/19 01:19:34;;;;;;;7.45;4.13;;;;;;;;;;524714;28;1183;-74
2023/03/19 01:19:50;;;;;;;6.68;3.97;;;;;;;;;;523082;28;1436;-75
2023/03/19 01:20:11;;;;;;;7.35;4.20;;;;;;;;;;524917;28;922;-74
2023/03/19 01:20:27;;;;;;;7.03;4.10;;;;;;;;;;523269;27;1262;-74
2023/03/19 01:20:42;;;;;;;7.55;4.10;;;;;;;;;;522292;28;1178;-74
2023/03/19 01:20:58;;;;;;;7.93;3.97;;;;;;;;;;521079;28;1330;-74
2023/03/19 01:21:13;;;;;;;7.28;4.10;;;;;;;;;;520359;28;1331;-74
2023/03/19 01:21:29;;;;;;;7.37;4.23;;;;;;;;;;520032;28;1313;-74
2023/03/19 01:21:45;;;;;;;7.72;4.20;;;;;;;;;;516880;28;1311;-75
2023/03/19 01:22:01;;;;;;;8.40;4.40;;;;;;;;;;518329;28;1357;-74
2023/03/19 01:22:16;;;;;;;7.07;4.37;;;;;;;;;;519541;28;1219;-74
2023/03/19 01:22:35;;;;;;;6.28;4.30;;;;;;;;;;519695;28;974;-74
2023/03/19 01:22:50;;;;;;;7.13;4.20;;;;;;;;;;518770;28;1125;-74
2023/03/19 01:23:06;;;;;;;7.00;3.87;;;;;;;;;;523699;28;1390;-75
2023/03/19 01:23:21;;;;;;;6.70;3.88;;;;;;;;;;523722;28;1331;-74
2023/03/19 01:23:36;;;;;;;8.43;4.17;;;;;;;;;;522237;28;1369;-74
2023/03/19 01:23:52;;;;;;;8.03;4.20;;;;;;;;;;523647;28;1173;-74
2023/03/19 01:24:07;;;;;;;6.82;4.13;;;;;;;;;;524882;27;918;-73
2023/03/19 01:24:22;;;;;;;6.80;4.10;;;;;;;;;;524988;28;1229;-74
2023/03/19 01:24:37;;;;;;;6.47;3.90;;;;;;;;;;522702;28;1192;-74
2023/03/19 01:24:53;;;;;;;7.70;4.10;;;;;;;;;;523989;28;1087;-74
2023/03/19 01:25:11;;;;;;;7.27;4.13;;;;;;;;;;523484;28;1452;-74
2023/03/19 01:25:26;;;;;;;6.38;3.80;;;;;;;;;;524440;28;1127;-74
2023/03/19 01:25:41;;;;;;;5.80;3.63;;;;;;;;;;522462;28;1175;-74
2023/03/19 01:25:57;;;;;;;6.43;3.80;;;;;;;;;;520433;28;1200;-74
2023/03/19 01:26:12;;;;;;;8.23;4.00;;;;;;;;;;521721;28;1444;-74
2023/03/19 01:26:27;;;;;;;8.07;4.07;;;;;;;;;;522569;28;1226;-74
2023/03/19 01:26:43;;;;;;;6.40;4.05;;;;;;;;;;522469;28;1180;-74
2023/03/19 01:26:58;;;;;;;6.33;3.93;;;;;;;;;;522092;28;1014;-74
2023/03/19 01:27:13;;;;;;;7.53;3.93;;;;;;;;;;522053;28;1169;-74
2023/03/19 01:27:29;;;;;;;8.23;3.80;;;;;;;;;;521015;28;1387;-74
2023/03/19 01:27:45;;;;;;;8.32;4.05;;;;;;;;;;522413;28;1323;-74
2023/03/19 01:28:00;;;;;;;7.47;4.00;;;;;;;;;;522198;27;1167;-74
2023/03/19 01:28:16;;;;;;;7.13;3.90;;;;;;;;;;524203;28;1013;-74
2023/03/19 01:28:31;;;;;;;6.70;3.97;;;;;;;;;;524649;28;1165;-74
2023/03/19 01:28:47;;;;;;;6.80;3.83;;;;;;;;;;524493;28;1204;-74
2023/03/19 01:29:03;;;;;;;6.67;3.87;;;;;;;;;;524867;27;1229;-74
2023/03/19 01:29:18;;;;;;;6.88;4.00;;;;;;;;;;524958;27;1384;-74
2023/03/19 01:29:33;;;;;;;6.93;3.67;;;;;;;;;;526711;27;1115;-74
2023/03/19 01:29:49;;;;;;;8.43;3.75;;;;;;;;;;526156;27;1196;-74
2023/03/19 01:30:06;;;;;;;9.43;4.00;;;;;;;;;;526164;27;1233;-73
2023/03/19 01:30:22;;;;;;;7.65;3.95;;;;;;;;;;523411;27;1481;-74
2023/03/19 01:30:39;;;;;;;7.47;4.15;;;;;;;;;;520301;28;1245;-74
2023/03/19 01:30:59;;;;;;;6.57;4.10;;;;;;;;;;519411;28;1185;-74
2023/03/19 01:31:15;;;;;;;6.80;4.00;;;;;;;;;;518849;28;1162;-74
2023/03/19 01:31:30;;;;;;;7.63;4.10;;;;;;;;;;521156;28;943;-74
2023/03/19 01:31:45;;;;;;;7.10;4.13;;;;;;;;;;518874;28;1200;-74
2023/03/19 01:32:01;;;;;;;6.45;4.00;;;;;;;;;;519995;28;1222;-73
2023/03/19 01:32:16;;;;;;;7.27;3.90;;;;;;;;;;520665;28;1423;-74
2023/03/19 01:32:32;;;;;;;7.43;4.00;;;;;;;;;;519545;28;1167;-74
2023/03/19 01:32:47;;;;;;;7.47;4.10;;;;;;;;;;520048;28;1231;-74
2023/03/19 01:33:03;;;;;;;7.10;4.00;;;;;;;;;;519633;28;1488;-73
2023/03/19 01:33:19;;;;;;;5.63;3.60;;;;;;;;;;519943;28;1324;-74
2023/03/19 01:33:36;;;;;;;5.63;3.50;;;;;;;;;;518680;28;1306;-74
2023/03/19 01:33:51;;;;;;;6.95;3.83;;;;;;;;;;522440;28;1294;-74
2023/03/19 01:34:06;;;;;;;8.40;4.20;;;;;;;;;;523069;28;1488;-74
2023/03/19 01:34:22;;;;;;;7.47;4.30;;;;;;;;;;522627;28;1048;-74
2023/03/19 01:34:37;;;;;;;8.37;4.40;;;;;;;;;;522115;28;1387;-74
2023/03/19 01:34:52;;;;;;;9.50;4.50;;;;;;;;;;523519;28;1281;-74
2023/03/19 01:35:08;;;;;;;7.45;4.10;;;;;;;;;;523850;28;1018;-75
2023/03/19 01:35:23;;;;;;;6.25;3.90;;;;;;;;;;523133;28;1230;-73
2023/03/19 01:35:39;;;;;;;5.93;3.80;;;;;;;;;;521796;28;1218;-74
2023/03/19 01:35:54;;;;;;;5.80;3.80;;;;;;;;;;518184;28;1309;-74
2023/03/19 01:36:10;;;;;;;5.88;3.72;;;;;;;;;;521533;28;1053;-74
2023/03/19 01:36:25;;;;;;;6.37;3.80;;;;;;;;;;522567;28;1163;-74
2023/03/19 01:36:40;;;;;;;6.53;3.70;;;;;;;;;;523986;28;1156;-74
2023/03/19 01:36:55;;;;;;;6.10;3.60;;;;;;;;;;522815;28;1290;-74
2023/03/19 01:37:11;;;;;;;5.67;3.80;;;;;;;;;;522540;28;1117;-74